createdAt,value
2019-02-11T00:00:30.402Z,4.50
2019-02-11T00:02:58.991Z,4.40
2019-02-11T00:05:27.435Z,4.40
2019-02-11T00:07:55.886Z,4.40
2019-02-11T00:10:24.303Z,4.40
2019-02-11T00:12:52.738Z,4.50
2019-02-11T00:15:21.148Z,4.50
2019-02-11T00:17:49.587Z,4.50
2019-02-11T00:20:21.467Z,4.50
2019-02-11T00:22:49.935Z,4.50
2019-02-11T00:25:18.385Z,4.50
2019-02-11T00:27:46.798Z,4.60
2019-02-11T00:30:15.275Z,4.60
2019-02-11T00:32:43.748Z,4.60
2019-02-11T00:35:12.262Z,4.70
2019-02-11T00:37:40.667Z,4.70
2019-02-11T00:40:09.478Z,4.70
2019-02-11T00:42:37.892Z,4.80
2019-02-11T00:45:08.363Z,4.70
2019-02-11T00:47:36.759Z,4.80
2019-02-11T00:50:08.547Z,4.80
2019-02-11T00:52:36.946Z,4.80
2019-02-11T00:55:05.827Z,4.80
2019-02-11T00:57:34.263Z,4.70
2019-02-11T01:00:02.772Z,4.70
2019-02-11T01:02:31.260Z,4.70
2019-02-11T01:04:59.699Z,4.60
2019-02-11T01:07:28.191Z,4.60
2019-02-11T01:09:56.642Z,4.60
2019-02-11T01:12:26.392Z,4.60
2019-02-11T01:14:54.843Z,4.60
2019-02-11T01:17:23.255Z,4.60
2019-02-11T01:19:51.675Z,4.70
2019-02-11T01:22:20.153Z,4.60
2019-02-11T01:24:48.603Z,4.60
2019-02-11T01:27:17.006Z,4.60
2019-02-11T01:29:45.545Z,4.60
2019-02-11T01:32:14.070Z,4.60
2019-02-11T01:34:42.483Z,4.60
2019-02-11T01:37:10.906Z,4.60
2019-02-11T01:39:39.340Z,4.70
2019-02-11T01:42:07.763Z,4.70
2019-02-11T01:44:36.200Z,4.60
2019-02-11T01:47:05.533Z,4.60
2019-02-11T01:49:34.058Z,4.60
2019-02-11T01:52:06.930Z,4.60
2019-02-11T01:54:35.365Z,4.60
2019-02-11T01:57:03.878Z,4.60
2019-02-11T01:59:32.547Z,4.60
2019-02-11T02:02:00.962Z,4.60
2019-02-11T02:04:29.382Z,4.50
2019-02-11T02:07:01.666Z,4.50
2019-02-11T02:09:30.074Z,4.50
2019-02-11T02:11:58.514Z,4.40
2019-02-11T02:14:26.927Z,4.40
2019-02-11T02:16:55.373Z,4.30
2019-02-11T02:19:24.074Z,4.30
2019-02-11T02:21:52.479Z,4.30
2019-02-11T02:24:24.823Z,4.20
2019-02-11T02:26:53.262Z,4.20
2019-02-11T02:29:21.742Z,4.20
2019-02-11T02:31:50.154Z,4.20
2019-02-11T02:34:18.610Z,4.20
2019-02-11T02:36:47.027Z,4.10
2019-02-11T02:39:19.815Z,4.10
2019-02-11T02:41:48.225Z,4.10
2019-02-11T02:44:16.682Z,4.00
2019-02-11T02:46:45.160Z,4.00
2019-02-11T02:49:13.584Z,4.00
2019-02-11T02:51:43.353Z,4.00
2019-02-11T02:54:11.775Z,3.90
2019-02-11T02:56:40.185Z,3.80
2019-02-11T02:59:08.633Z,3.80
2019-02-11T03:01:37.126Z,3.70
2019-02-11T03:04:05.527Z,3.70
2019-02-11T03:06:34.032Z,3.60
2019-02-11T03:09:06.820Z,3.50
2019-02-11T03:11:35.229Z,3.40
2019-02-11T03:14:05.687Z,3.40
2019-02-11T03:16:33.912Z,3.30
2019-02-11T03:19:02.344Z,3.20
2019-02-11T03:21:30.797Z,3.10
2019-02-11T03:23:59.538Z,3.10
2019-02-11T03:26:31.252Z,3.00
2019-02-11T03:28:59.674Z,2.90
2019-02-11T03:31:28.129Z,2.90
2019-02-11T03:33:56.597Z,2.80
2019-02-11T03:36:25.003Z,2.70
2019-02-11T03:38:57.404Z,2.70
2019-02-11T03:41:29.810Z,2.70
2019-02-11T03:43:58.211Z,2.60
2019-02-11T03:46:26.646Z,2.50
2019-02-11T03:48:55.160Z,2.50
2019-02-11T03:51:23.735Z,2.40
2019-02-11T03:53:52.179Z,2.40
2019-02-11T03:56:23.621Z,2.30
2019-02-11T03:58:52.053Z,2.30
2019-02-11T04:01:20.492Z,2.30
2019-02-11T04:03:48.923Z,2.30
2019-02-11T04:06:17.327Z,2.20
2019-02-11T04:08:45.765Z,2.20
2019-02-11T04:11:14.169Z,2.20
2019-02-11T04:13:42.607Z,2.20
2019-02-11T04:16:11.028Z,2.10
2019-02-11T04:18:39.458Z,2.20
2019-02-11T04:21:08.004Z,2.10
2019-02-11T04:23:37.717Z,2.10
2019-02-11T04:26:06.121Z,2.10
2019-02-11T04:28:34.546Z,2.10
2019-02-11T04:31:03.159Z,2.10
2019-02-11T04:33:31.596Z,2.10
2019-02-11T04:36:00.007Z,2.10
2019-02-11T04:38:28.456Z,2.00
2019-02-11T04:41:00.078Z,2.00
2019-02-11T04:43:28.535Z,2.00
2019-02-11T04:45:57.310Z,1.90
2019-02-11T04:48:25.797Z,1.90
2019-02-11T04:50:54.221Z,1.90
2019-02-11T04:53:22.663Z,1.90
2019-02-11T04:55:57.522Z,1.80
2019-02-11T04:58:27.469Z,1.80
2019-02-11T05:00:55.895Z,1.80
2019-02-11T05:03:24.614Z,1.80
2019-02-11T05:05:53.095Z,1.70
2019-02-11T05:08:21.771Z,1.70
2019-02-11T05:10:50.201Z,1.80
2019-02-11T05:13:18.736Z,1.70
2019-02-11T05:15:47.155Z,1.70
2019-02-11T05:18:16.961Z,1.70
2019-02-11T05:20:46.175Z,1.70
2019-02-11T05:23:14.607Z,1.70
2019-02-11T05:25:46.351Z,1.60
2019-02-11T05:28:14.799Z,1.60
2019-02-11T05:30:43.211Z,1.60
2019-02-11T05:33:11.786Z,1.70
2019-02-11T05:35:40.471Z,1.60
2019-02-11T05:38:08.982Z,1.60
2019-02-11T05:40:41.146Z,1.60
2019-02-11T05:43:09.692Z,1.70
2019-02-11T05:45:38.112Z,1.70
2019-02-11T05:48:06.531Z,1.70
2019-02-11T05:50:35.026Z,1.70
2019-02-11T05:53:03.447Z,1.70
2019-02-11T05:55:34.990Z,1.70
2019-02-11T05:58:03.866Z,1.80
2019-02-11T06:00:32.307Z,1.80
2019-02-11T06:03:00.847Z,1.70
2019-02-11T06:05:29.255Z,1.80
2019-02-11T06:07:57.703Z,1.80
2019-02-11T06:10:26.127Z,1.80
2019-02-11T06:12:54.559Z,1.80
2019-02-11T06:15:22.973Z,1.80
2019-02-11T06:17:51.688Z,1.90
2019-02-11T06:20:20.085Z,1.90
2019-02-11T06:22:48.491Z,1.90
2019-02-11T06:25:19.577Z,2.00
2019-02-11T06:27:48.110Z,2.00
2019-02-11T06:30:16.697Z,2.10
2019-02-11T06:32:45.126Z,2.10
2019-02-11T06:35:13.611Z,2.10
2019-02-11T06:37:42.096Z,2.20
2019-02-11T06:40:11.705Z,2.20
2019-02-11T06:42:40.151Z,2.20
2019-02-11T06:45:13.233Z,2.30
2019-02-11T06:47:40.386Z,2.30
2019-02-11T06:50:14.695Z,2.40
2019-02-11T06:52:43.115Z,2.40
2019-02-11T06:55:12.685Z,2.50
2019-02-11T06:57:41.138Z,2.50
2019-02-11T07:00:14.863Z,2.50
2019-02-11T07:02:43.324Z,2.60
2019-02-11T07:05:11.791Z,2.60
2019-02-11T07:07:40.196Z,2.60
2019-02-11T07:10:11.230Z,2.70
2019-02-11T07:12:39.797Z,2.70
2019-02-11T07:15:21.279Z,2.70
2019-02-11T07:17:43.342Z,2.70
2019-02-11T07:20:11.848Z,2.70
2019-02-11T07:22:40.299Z,2.60
2019-02-11T07:25:10.259Z,2.70
2019-02-11T07:27:42.373Z,2.70
2019-02-11T07:30:12.939Z,2.70
2019-02-11T07:32:41.383Z,2.70
2019-02-11T07:35:09.855Z,2.70
2019-02-11T07:37:38.287Z,2.70
2019-02-11T07:40:09.630Z,2.80
2019-02-11T07:42:43.609Z,2.80
2019-02-11T07:45:14.013Z,2.90
2019-02-11T07:47:42.475Z,2.90
2019-02-11T07:50:10.892Z,3.00
2019-02-11T07:52:39.332Z,3.00
2019-02-11T07:55:07.786Z,3.00
2019-02-11T07:57:39.215Z,3.00
2019-02-11T08:00:10.055Z,3.00
2019-02-11T08:02:38.557Z,3.00
2019-02-11T08:05:07.691Z,3.00
2019-02-11T08:07:36.132Z,3.10
2019-02-11T08:10:06.945Z,3.10
2019-02-11T08:12:35.371Z,3.10
2019-02-11T08:15:06.053Z,3.10
2019-02-11T08:17:34.459Z,3.10
2019-02-11T08:20:03.430Z,3.10
2019-02-11T08:22:31.925Z,3.00
2019-02-11T08:25:00.458Z,3.00
2019-02-11T08:27:28.863Z,3.00
2019-02-11T08:29:57.295Z,3.00
2019-02-11T08:32:25.707Z,3.10
2019-02-11T08:34:54.111Z,3.00
2019-02-11T08:37:22.732Z,3.00
2019-02-11T08:39:51.179Z,3.00
2019-02-11T08:42:19.605Z,3.10
2019-02-11T08:44:48.107Z,3.20
2019-02-11T08:47:16.571Z,3.20
2019-02-11T08:49:45.078Z,3.20
2019-02-11T08:52:13.555Z,3.30
2019-02-11T08:54:42.019Z,3.20
2019-02-11T08:57:10.459Z,3.20
2019-02-11T08:59:43.446Z,3.10
2019-02-11T09:02:12.530Z,3.10
2019-02-11T09:04:40.980Z,3.30
2019-02-11T09:07:10.251Z,3.30
2019-02-11T09:09:46.219Z,3.30
2019-02-11T09:12:14.697Z,3.30
2019-02-11T09:14:43.196Z,3.30
2019-02-11T09:17:11.679Z,3.40
2019-02-11T09:19:40.091Z,3.40
2019-02-11T09:22:08.523Z,3.40
2019-02-11T09:24:37.198Z,3.40
2019-02-11T09:27:05.730Z,3.50
2019-02-11T09:29:38.409Z,3.50
2019-02-11T09:32:06.826Z,3.50
2019-02-11T09:34:35.259Z,3.60
2019-02-11T09:37:03.689Z,3.70
2019-02-11T09:39:32.127Z,3.60
2019-02-11T09:42:00.544Z,3.70
2019-02-11T09:44:33.370Z,3.80
2019-02-11T09:47:01.818Z,3.80
2019-02-11T09:49:30.372Z,3.80
2019-02-11T09:51:58.893Z,3.70
2019-02-11T09:54:27.295Z,3.70
2019-02-11T09:56:55.971Z,3.70
2019-02-11T09:59:24.419Z,3.80
2019-02-11T10:01:55.771Z,3.80
2019-02-11T10:04:24.186Z,3.80
2019-02-11T10:06:52.683Z,4.00
2019-02-11T10:09:21.187Z,4.10
2019-02-11T10:11:51.310Z,4.00
2019-02-11T10:14:20.320Z,3.90
2019-02-11T10:16:49.657Z,3.90
2019-02-11T10:19:19.994Z,3.90
2019-02-11T10:21:48.750Z,3.90
2019-02-11T10:24:17.263Z,3.90
2019-02-11T10:26:47.156Z,4.00
2019-02-11T10:29:15.697Z,4.00
2019-02-11T10:31:44.138Z,4.20
2019-02-11T10:34:12.624Z,4.20
2019-02-11T10:36:41.083Z,4.20
2019-02-11T10:39:09.487Z,4.30
2019-02-11T10:41:37.894Z,4.30
2019-02-11T10:44:06.352Z,4.30
2019-02-11T10:46:38.099Z,4.30
2019-02-11T10:49:06.518Z,4.30
2019-02-11T10:51:35.003Z,4.30
2019-02-11T10:54:03.440Z,4.30
2019-02-11T10:56:31.918Z,4.40
2019-02-11T10:59:00.333Z,4.40
2019-02-11T11:01:31.852Z,4.30
2019-02-11T11:04:00.272Z,4.10
2019-02-11T11:06:28.707Z,3.90
2019-02-11T11:08:57.150Z,4.00
2019-02-11T11:11:25.895Z,4.10
2019-02-11T11:13:54.379Z,4.20
2019-02-11T11:16:29.332Z,4.20
2019-02-11T11:18:52.952Z,4.20
2019-02-11T11:21:21.530Z,4.10
2019-02-11T11:23:49.976Z,4.10
2019-02-11T11:26:18.393Z,4.00
2019-02-11T11:28:46.843Z,4.00
2019-02-11T11:31:19.065Z,4.10
2019-02-11T11:33:47.693Z,4.20
2019-02-11T11:36:16.404Z,4.40
2019-02-11T11:38:44.883Z,4.40
2019-02-11T11:41:13.307Z,4.50
2019-02-11T11:43:41.849Z,4.60
2019-02-11T11:46:10.364Z,4.70
2019-02-11T11:48:42.531Z,4.70
2019-02-11T11:51:10.934Z,4.50
2019-02-11T11:53:39.331Z,4.40
2019-02-11T11:56:07.768Z,4.50
2019-02-11T11:58:36.281Z,4.40
2019-02-11T12:01:05.465Z,4.50
2019-02-11T12:03:33.928Z,4.50
2019-02-11T12:06:02.825Z,4.40
2019-02-11T12:08:31.229Z,4.40
2019-02-11T12:10:59.959Z,4.50
2019-02-11T12:13:28.535Z,4.40
2019-02-11T12:15:57.013Z,4.30
2019-02-11T12:18:30.033Z,4.40
2019-02-11T12:20:58.475Z,4.40
2019-02-11T12:23:27.021Z,4.30
2019-02-11T12:25:55.663Z,4.40
2019-02-11T12:28:25.686Z,4.40
2019-02-11T12:30:54.234Z,4.60
2019-02-11T12:33:22.723Z,4.50
2019-02-11T12:35:51.258Z,4.60
2019-02-11T12:38:19.723Z,4.70
2019-02-11T12:40:51.674Z,4.80
2019-02-11T12:43:21.903Z,4.80
2019-02-11T12:45:50.751Z,5.00
2019-02-11T12:48:23.187Z,5.00
2019-02-11T12:50:51.745Z,5.00
2019-02-11T12:53:20.212Z,5.00
2019-02-11T12:55:48.685Z,4.90
2019-02-11T12:58:17.105Z,4.90
2019-02-11T13:00:45.534Z,4.90
2019-02-11T13:03:14.145Z,4.80
2019-02-11T13:05:45.654Z,4.80
2019-02-11T13:08:12.777Z,4.80
2019-02-11T13:10:41.237Z,4.80
2019-02-11T13:13:09.729Z,4.80
2019-02-11T13:15:59.279Z,4.90
2019-02-11T13:18:12.363Z,4.90
2019-02-11T13:20:41.034Z,4.90
2019-02-11T13:23:09.643Z,4.90
2019-02-11T13:25:38.617Z,4.90
2019-02-11T13:28:07.083Z,5.10
2019-02-11T13:30:35.821Z,5.20
2019-02-11T13:33:04.303Z,5.20
2019-02-11T13:35:32.819Z,5.20
2019-02-11T13:38:01.440Z,5.00
2019-02-11T13:40:29.874Z,5.20
2019-02-11T13:42:58.389Z,5.20
2019-02-11T13:45:27.160Z,5.20
2019-02-11T13:47:58.033Z,5.10
2019-02-11T13:50:27.332Z,5.10
2019-02-11T13:52:56.625Z,5.10
2019-02-11T13:55:30.140Z,5.00
2019-02-11T13:57:55.651Z,5.00
2019-02-11T14:00:27.353Z,4.90
2019-02-11T14:03:00.992Z,4.90
2019-02-11T14:05:30.664Z,4.80
2019-02-11T14:08:00.688Z,4.80
2019-02-11T14:10:31.214Z,4.80
2019-02-11T14:13:04.915Z,4.90
2019-02-11T14:15:33.405Z,4.90
2019-02-11T14:18:14.005Z,5.00
2019-02-11T14:20:40.084Z,5.10
2019-02-11T14:23:08.557Z,5.10
2019-02-11T14:25:44.447Z,5.10
2019-02-11T14:28:07.376Z,5.00
2019-02-11T14:30:35.929Z,5.00
2019-02-11T14:33:06.501Z,4.90
2019-02-11T14:35:34.994Z,4.90
2019-02-11T14:38:03.549Z,4.90
2019-02-11T14:40:32.411Z,4.90
2019-02-11T14:43:01.209Z,5.00
2019-02-11T14:45:30.399Z,5.00
2019-02-11T14:47:58.877Z,5.10
2019-02-11T14:50:31.175Z,5.10
2019-02-11T14:53:02.784Z,5.10
2019-02-11T14:55:31.471Z,5.00
2019-02-11T14:57:59.996Z,5.00
2019-02-11T15:00:28.419Z,5.00
2019-02-11T15:02:56.855Z,4.90
2019-02-11T15:05:25.273Z,4.90
2019-02-11T15:07:53.736Z,4.90
2019-02-11T15:10:22.263Z,4.90
2019-02-11T15:12:50.752Z,4.90
2019-02-11T15:15:19.282Z,4.90
2019-02-11T15:17:47.984Z,4.90
2019-02-11T15:20:20.526Z,4.90
2019-02-11T15:22:48.949Z,4.90
2019-02-11T15:25:18.895Z,4.80
2019-02-11T15:27:47.347Z,4.90
2019-02-11T15:30:18.857Z,4.90
2019-02-11T15:32:48.805Z,4.90
2019-02-11T15:35:24.203Z,4.90
2019-02-11T15:37:52.671Z,4.90
2019-02-11T15:40:22.831Z,4.90
2019-02-11T15:42:51.266Z,4.90
2019-02-11T15:45:19.678Z,4.90
2019-02-11T15:47:48.135Z,4.90
2019-02-11T15:50:18.589Z,4.90
2019-02-11T15:52:47.138Z,4.90
2019-02-11T15:55:18.184Z,4.90
2019-02-11T15:57:46.667Z,4.90
2019-02-11T16:00:22.649Z,4.90
2019-02-11T16:02:51.664Z,4.90
2019-02-11T16:05:20.682Z,4.90
2019-02-11T16:07:53.722Z,4.90
2019-02-11T16:10:27.329Z,4.90
2019-02-11T16:12:55.738Z,4.80
2019-02-11T16:15:24.395Z,4.80
2019-02-11T16:17:52.815Z,4.80
2019-02-11T16:20:21.266Z,4.80
2019-02-11T16:22:49.732Z,4.80
2019-02-11T16:25:18.433Z,4.80
2019-02-11T16:27:46.887Z,4.80
2019-02-11T16:30:20.039Z,4.80
2019-02-11T16:32:48.991Z,4.70
2019-02-11T16:35:18.472Z,4.70
2019-02-11T16:37:47.411Z,4.70
2019-02-11T16:40:30.214Z,4.70
2019-02-11T16:42:58.698Z,4.70
2019-02-11T16:45:28.747Z,4.70
2019-02-11T16:47:57.197Z,4.60
2019-02-11T16:50:25.779Z,4.60
2019-02-11T16:52:54.406Z,4.60
2019-02-11T16:55:22.838Z,4.60
2019-02-11T16:57:51.411Z,4.60
2019-02-11T17:00:20.764Z,4.60
2019-02-11T17:02:49.224Z,4.50
2019-02-11T17:05:19.120Z,4.60
2019-02-11T17:07:52.147Z,4.50
2019-02-11T17:10:20.572Z,4.40
2019-02-11T17:12:49.250Z,4.40
2019-02-11T17:15:20.921Z,4.40
2019-02-11T17:17:49.360Z,4.40
2019-02-11T17:20:17.927Z,4.40
2019-02-11T17:22:52.434Z,4.40
2019-02-11T17:25:20.874Z,4.50
2019-02-11T17:27:49.287Z,4.50
2019-02-11T17:30:23.430Z,4.50
2019-02-11T17:32:52.019Z,4.50
2019-02-11T17:35:20.637Z,4.50
2019-02-11T17:37:49.112Z,4.40
2019-02-11T17:40:17.718Z,4.50
2019-02-11T17:42:46.161Z,4.50
2019-02-11T17:45:20.764Z,4.40
2019-02-11T17:47:49.535Z,4.30
2019-02-11T17:50:17.984Z,4.10
2019-02-11T17:52:46.391Z,3.80
2019-02-11T17:57:57.801Z,3.30
2019-02-11T18:13:52.315Z,3.10
2019-02-11T18:16:21.955Z,3.00
2019-02-11T18:24:47.191Z,2.90
2019-02-11T18:27:22.779Z,2.80
2019-02-11T18:29:58.278Z,2.70
2019-02-11T18:40:22.037Z,2.60
2019-02-11T18:42:50.501Z,2.50
2019-02-11T18:50:34.035Z,2.30
2019-02-11T18:53:05.319Z,2.20
2019-02-11T19:06:40.195Z,2.10
2019-02-11T19:09:10.254Z,2.00
2019-02-11T19:11:38.672Z,2.10
2019-02-11T19:16:44.643Z,2.10
2019-02-11T19:19:15.355Z,2.10
2019-02-11T19:21:43.763Z,2.20
2019-02-11T19:24:16.820Z,2.20
2019-02-11T19:26:46.541Z,2.20
2019-02-11T19:37:11.541Z,2.20
2019-02-11T19:39:41.216Z,2.30
2019-02-11T19:47:31.444Z,2.30
2019-02-11T19:50:00.027Z,2.30
2019-02-11T19:58:15.827Z,2.40
2019-02-11T20:00:44.407Z,2.30
2019-02-11T20:05:57.439Z,2.20
2019-02-11T20:08:26.383Z,2.30
2019-02-11T20:10:54.922Z,2.30
2019-02-11T20:13:27.747Z,2.20
2019-02-11T20:15:56.324Z,2.20
2019-02-11T20:18:24.792Z,2.10
2019-02-11T20:21:00.363Z,2.10
2019-02-11T20:23:28.783Z,2.10
2019-02-11T20:25:57.350Z,2.10
2019-02-11T20:32:07.004Z,2.00
2019-02-11T20:34:35.398Z,2.00
2019-02-11T20:37:03.995Z,1.90
2019-02-11T20:39:32.459Z,2.00
2019-02-11T20:42:01.025Z,1.90
2019-02-11T20:44:29.545Z,1.90
2019-02-11T20:46:58.195Z,1.90
2019-02-11T20:49:26.656Z,1.90
2019-02-11T20:51:55.146Z,1.90
2019-02-11T20:54:23.558Z,1.90
2019-02-11T20:56:52.415Z,1.90
2019-02-11T20:59:20.962Z,1.90
2019-02-11T21:01:49.385Z,1.80
2019-02-11T21:04:18.187Z,2.00
2019-02-11T21:06:46.957Z,1.90
2019-02-11T21:09:16.275Z,2.00
2019-02-11T21:11:45.494Z,2.00
2019-02-11T21:14:14.171Z,1.90
2019-02-11T21:16:42.878Z,1.80
2019-02-11T21:19:11.740Z,1.80
2019-02-11T21:21:40.567Z,1.90
2019-02-11T21:24:10.976Z,1.80
2019-02-11T21:26:39.639Z,1.80
2019-02-11T21:29:08.384Z,1.70
2019-02-11T21:31:37.161Z,1.70
2019-02-11T21:34:05.697Z,1.60
2019-02-11T21:36:34.330Z,1.50
2019-02-11T21:39:04.425Z,1.50
2019-02-11T21:41:33.246Z,1.40
2019-02-11T21:44:01.699Z,1.40
2019-02-11T21:46:30.141Z,1.50
2019-02-11T21:48:58.595Z,1.50
2019-02-11T21:51:27.035Z,1.50
2019-02-11T21:53:55.567Z,1.50
2019-02-11T21:56:26.914Z,1.50
2019-02-11T21:58:55.365Z,1.40
2019-02-11T22:01:23.750Z,1.50
2019-02-11T22:03:52.211Z,1.50
2019-02-11T22:06:20.612Z,1.40
2019-02-11T22:08:49.031Z,1.40
2019-02-11T22:11:17.467Z,1.50
2019-02-11T22:13:45.887Z,1.50
2019-02-11T22:16:14.297Z,1.50
2019-02-11T22:18:42.753Z,1.40
2019-02-11T22:21:11.163Z,1.40
2019-02-11T22:23:39.598Z,1.40
2019-02-11T22:26:08.007Z,1.40
2019-02-11T22:28:36.448Z,1.40
2019-02-11T22:31:04.845Z,1.50
2019-02-11T22:33:33.296Z,1.60
2019-02-11T22:36:01.706Z,1.50
2019-02-11T22:38:30.109Z,1.50
2019-02-11T22:40:58.518Z,1.60
2019-02-11T22:43:31.318Z,1.70
2019-02-11T22:45:59.766Z,1.80
2019-02-11T22:48:28.174Z,1.80
2019-02-11T22:50:56.606Z,1.90
2019-02-11T22:53:25.032Z,1.90
2019-02-11T22:55:53.475Z,2.00
2019-02-11T22:58:21.883Z,2.00
2019-02-11T23:00:54.181Z,2.10
2019-02-11T23:03:22.605Z,2.10
2019-02-11T23:05:51.145Z,2.10
2019-02-11T23:08:19.602Z,2.10
2019-02-11T23:10:48.050Z,2.20
2019-02-11T23:13:16.451Z,2.20
2019-02-11T23:15:45.035Z,2.20
2019-02-11T23:18:13.480Z,2.20
2019-02-11T23:20:41.957Z,2.20
2019-02-11T23:23:10.501Z,2.20
2019-02-11T23:25:38.947Z,2.20
2019-02-11T23:28:07.363Z,2.20
2019-02-11T23:30:38.823Z,2.20
2019-02-11T23:33:07.219Z,2.20
2019-02-11T23:35:35.726Z,2.20
2019-02-11T23:38:04.207Z,2.20
2019-02-11T23:40:32.667Z,2.20
2019-02-11T23:43:01.109Z,2.20
2019-02-11T23:45:29.510Z,2.20
2019-02-11T23:47:58.045Z,2.20
2019-02-11T23:50:26.447Z,2.20
2019-02-11T23:52:54.858Z,2.20
2019-02-11T23:55:23.308Z,2.10
2019-02-11T23:57:51.730Z,2.10
